createdAt,value
2024-02-27T00:00:11.976Z,26.88
2024-02-27T00:02:39.132Z,26.45
2024-02-27T00:05:06.007Z,27.02
2024-02-27T00:07:32.443Z,23.63
2024-02-27T00:09:59.821Z,24.38
2024-02-27T00:12:27.164Z,26.00
2024-02-27T00:14:54.532Z,25.25
2024-02-27T00:17:21.960Z,23.15
2024-02-27T00:19:48.577Z,25.10
2024-02-27T00:22:16.290Z,26.95
2024-02-27T00:24:42.795Z,25.45
2024-02-27T00:27:09.338Z,27.65
2024-02-27T00:29:35.886Z,25.48
2024-02-27T00:32:02.347Z,24.05
2024-02-27T00:34:29.249Z,25.38
2024-02-27T00:36:55.766Z,23.83
2024-02-27T00:39:23.035Z,26.08
2024-02-27T00:41:50.835Z,26.33
2024-02-27T00:44:17.303Z,24.65
2024-02-27T00:46:44.552Z,22.08
2024-02-27T00:49:11.216Z,26.30
2024-02-27T00:51:37.924Z,25.00
2024-02-27T00:54:04.428Z,26.45
2024-02-27T00:56:30.924Z,26.35
2024-02-27T00:58:57.385Z,24.67
2024-02-27T01:01:23.920Z,26.85
2024-02-27T01:03:50.637Z,26.83
2024-02-27T01:06:17.384Z,26.77
2024-02-27T01:08:43.877Z,25.75
2024-02-27T01:11:10.420Z,25.90
2024-02-27T01:13:37.022Z,24.88
2024-02-27T01:16:04.371Z,23.17
2024-02-27T01:18:31.024Z,24.92
2024-02-27T01:20:57.625Z,25.67
2024-02-27T01:23:24.123Z,24.85
2024-02-27T01:25:50.560Z,25.70
2024-02-27T01:28:17.008Z,23.42
2024-02-27T01:30:43.563Z,25.00
2024-02-27T01:33:10.263Z,21.10
2024-02-27T01:35:36.784Z,25.02
2024-02-27T01:38:03.682Z,25.58
2024-02-27T01:40:30.125Z,25.13
2024-02-27T01:42:56.567Z,23.27
2024-02-27T01:45:23.625Z,26.02
2024-02-27T01:47:51.285Z,23.23
2024-02-27T01:50:18.553Z,24.80
2024-02-27T01:52:46.656Z,26.73
2024-02-27T01:55:13.861Z,24.15
2024-02-27T01:57:40.866Z,26.25
2024-02-27T02:00:10.681Z,24.08
2024-02-27T02:02:38.805Z,25.10
2024-02-27T02:05:08.620Z,24.20
2024-02-27T02:07:36.472Z,24.92
2024-02-27T02:10:03.014Z,25.27
2024-02-27T02:12:29.497Z,22.60
2024-02-27T02:14:56.271Z,24.25
2024-02-27T02:17:22.716Z,24.67
2024-02-27T02:19:49.276Z,24.38
2024-02-27T02:22:15.697Z,25.20
2024-02-27T02:24:42.268Z,25.83
2024-02-27T02:27:10.255Z,25.27
2024-02-27T02:29:36.689Z,23.13
2024-02-27T02:32:04.364Z,25.00
2024-02-27T02:34:30.851Z,26.15
2024-02-27T02:36:57.301Z,24.70
2024-02-27T02:39:23.857Z,26.00
2024-02-27T02:41:50.290Z,24.60
2024-02-27T02:44:16.749Z,24.02
2024-02-27T02:46:44.126Z,20.45
2024-02-27T02:49:10.863Z,23.65
2024-02-27T02:51:37.563Z,22.15
2024-02-27T02:54:04.114Z,24.88
2024-02-27T02:56:30.614Z,24.60
2024-02-27T02:58:57.015Z,23.58
2024-02-27T03:01:23.487Z,24.42
2024-02-27T03:03:50.010Z,24.55
2024-02-27T03:06:17.190Z,22.92
2024-02-27T03:08:43.671Z,23.67
2024-02-27T03:11:10.117Z,23.60
2024-02-27T03:13:36.642Z,25.00
2024-02-27T03:16:03.224Z,24.75
2024-02-27T03:18:29.889Z,25.95
2024-02-27T03:20:56.497Z,24.13
2024-02-27T03:23:22.968Z,25.02
2024-02-27T03:25:49.460Z,22.92
2024-02-27T03:28:15.869Z,23.92
2024-02-27T03:30:42.485Z,23.50
2024-02-27T03:33:09.109Z,25.20
2024-02-27T03:35:37.297Z,25.88
2024-02-27T03:38:04.606Z,24.67
2024-02-27T03:40:31.117Z,26.70
2024-02-27T03:42:57.598Z,25.15
2024-02-27T03:45:24.328Z,23.75
2024-02-27T03:47:50.942Z,24.90
2024-02-27T03:50:17.353Z,21.40
2024-02-27T03:52:44.104Z,22.95
2024-02-27T03:55:10.688Z,23.08
2024-02-27T03:57:37.171Z,25.67
2024-02-27T04:00:05.149Z,24.58
2024-02-27T04:02:31.600Z,24.55
2024-02-27T04:04:58.118Z,25.13
2024-02-27T04:07:24.640Z,23.30
2024-02-27T04:09:51.080Z,25.27
2024-02-27T04:12:17.535Z,23.35
2024-02-27T04:14:44.397Z,25.50
2024-02-27T04:17:10.834Z,23.02
2024-02-27T04:19:37.400Z,23.77
2024-02-27T04:22:03.946Z,23.23
2024-02-27T04:24:30.495Z,21.63
2024-02-27T04:26:57.245Z,25.65
2024-02-27T04:29:23.809Z,25.40
2024-02-27T04:31:50.212Z,24.33
2024-02-27T04:34:16.785Z,24.98
2024-02-27T04:36:48.147Z,26.10
2024-02-27T04:39:15.406Z,20.05
2024-02-27T04:41:41.964Z,22.92
2024-02-27T04:44:11.773Z,23.80
2024-02-27T04:46:38.193Z,24.08
2024-02-27T04:49:05.200Z,24.48
2024-02-27T04:51:31.757Z,25.38
2024-02-27T04:53:58.598Z,25.00
2024-02-27T04:56:25.085Z,23.92
2024-02-27T04:58:51.519Z,25.35
2024-02-27T05:01:18.057Z,23.50
2024-02-27T05:03:44.744Z,23.52
2024-02-27T05:06:11.323Z,23.90
2024-02-27T05:08:37.814Z,25.63
2024-02-27T05:11:04.420Z,24.70
2024-02-27T05:13:30.850Z,25.35
2024-02-27T05:15:57.275Z,22.50
2024-02-27T05:18:23.783Z,23.48
2024-02-27T05:20:50.309Z,24.73
2024-02-27T05:23:16.865Z,25.05
2024-02-27T05:25:43.314Z,25.70
2024-02-27T05:28:10.357Z,25.63
2024-02-27T05:30:36.827Z,25.23
2024-02-27T05:33:04.722Z,25.35
2024-02-27T05:35:31.427Z,26.40
2024-02-27T05:37:57.913Z,26.08
2024-02-27T05:40:24.357Z,26.77
2024-02-27T05:42:51.036Z,27.58
2024-02-27T05:45:17.507Z,25.63
2024-02-27T05:47:44.623Z,26.02
2024-02-27T05:50:11.353Z,25.20
2024-02-27T05:52:38.541Z,25.58
2024-02-27T05:55:05.158Z,23.75
2024-02-27T05:57:31.650Z,25.63
2024-02-27T05:59:58.114Z,22.45
2024-02-27T06:02:24.559Z,25.23
2024-02-27T06:04:51.069Z,26.13
2024-02-27T06:07:17.801Z,26.40
2024-02-27T06:09:44.384Z,24.65
2024-02-27T06:12:11.186Z,26.15
2024-02-27T06:14:37.703Z,25.25
2024-02-27T06:17:04.416Z,23.77
2024-02-27T06:19:31.973Z,25.67
2024-02-27T06:22:20.224Z,26.67
2024-02-27T06:24:46.861Z,24.05
2024-02-27T06:27:13.703Z,23.33
2024-02-27T06:29:40.150Z,23.42
2024-02-27T06:32:12.016Z,26.85
2024-02-27T06:37:05.748Z,23.48
2024-02-27T06:39:32.244Z,23.70
2024-02-27T06:41:59.094Z,22.00
2024-02-27T06:44:26.112Z,24.25
2024-02-27T06:46:52.556Z,23.70
2024-02-27T06:49:22.954Z,25.27
2024-02-27T06:51:50.290Z,24.52
2024-02-27T06:54:16.822Z,24.23
2024-02-27T06:56:43.342Z,24.35
2024-02-27T06:59:10.404Z,26.10
2024-02-27T07:01:36.951Z,26.17
2024-02-27T07:04:03.509Z,24.77
2024-02-27T07:06:30.052Z,24.30
2024-02-27T07:08:56.636Z,25.50
2024-02-27T07:11:23.210Z,25.60
2024-02-27T07:13:49.663Z,25.42
2024-02-27T07:16:16.097Z,26.60
2024-02-27T07:18:42.740Z,24.98
2024-02-27T07:21:09.248Z,27.02
2024-02-27T07:23:35.763Z,26.88
2024-02-27T07:26:02.172Z,25.38
2024-02-27T07:28:32.960Z,27.95
2024-02-27T07:31:00.236Z,25.63
2024-02-27T07:33:26.885Z,26.80
2024-02-27T07:35:53.496Z,24.63
2024-02-27T07:38:19.958Z,25.38
2024-02-27T07:40:46.401Z,24.33
2024-02-27T07:43:12.851Z,24.52
2024-02-27T07:45:39.370Z,26.75
2024-02-27T07:48:06.159Z,25.60
2024-02-27T07:50:34.098Z,24.85
2024-02-27T07:53:00.776Z,22.00
2024-02-27T07:55:27.416Z,26.40
2024-02-27T07:57:53.902Z,22.98
2024-02-27T08:00:20.680Z,23.30
2024-02-27T08:02:47.534Z,22.58
2024-02-27T08:05:13.978Z,22.90
2024-02-27T08:07:40.451Z,24.13
2024-02-27T08:10:07.465Z,22.20
2024-02-27T08:12:34.356Z,23.48
2024-02-27T08:15:00.993Z,25.13
2024-02-27T08:17:27.614Z,24.30
2024-02-27T08:19:54.198Z,24.52
2024-02-27T08:22:20.659Z,21.42
2024-02-27T08:24:47.288Z,20.05
2024-02-27T08:27:13.931Z,19.92
2024-02-27T08:29:40.367Z,18.63
2024-02-27T08:32:06.892Z,22.48
2024-02-27T08:34:33.997Z,22.08
2024-02-27T08:37:00.624Z,21.92
2024-02-27T08:39:28.115Z,23.17
2024-02-27T08:41:54.575Z,21.65
2024-02-27T08:44:21.016Z,21.60
2024-02-27T08:46:47.487Z,23.50
2024-02-27T08:49:15.104Z,22.67
2024-02-27T08:51:41.956Z,20.52
2024-02-27T08:54:08.557Z,21.67
2024-02-27T08:56:35.849Z,20.30
2024-02-27T08:59:02.273Z,18.95
2024-02-27T09:01:28.759Z,19.33
2024-02-27T09:03:55.407Z,19.63
2024-02-27T09:06:22.059Z,20.60
2024-02-27T09:08:48.613Z,21.02
2024-02-27T09:11:15.134Z,20.67
2024-02-27T09:13:41.616Z,22.48
2024-02-27T09:16:08.184Z,21.75
2024-02-27T09:18:35.781Z,21.55
2024-02-27T09:21:02.617Z,22.77
2024-02-27T09:23:29.110Z,20.73
2024-02-27T09:25:55.611Z,22.42
2024-02-27T09:28:22.035Z,20.52
2024-02-27T09:30:48.522Z,20.65
2024-02-27T09:33:15.483Z,22.90
2024-02-27T09:35:43.986Z,21.50
2024-02-27T09:38:10.454Z,23.63
2024-02-27T09:40:37.006Z,21.38
2024-02-27T09:43:04.039Z,21.00
2024-02-27T09:45:31.896Z,21.40
2024-02-27T09:47:59.315Z,22.60
2024-02-27T09:50:26.974Z,22.52
2024-02-27T09:52:54.438Z,21.58
2024-02-27T09:55:21.691Z,22.75
2024-02-27T09:57:49.341Z,21.30
2024-02-27T10:00:20.812Z,20.90
2024-02-27T10:02:50.208Z,21.55
2024-02-27T10:05:19.100Z,19.05
2024-02-27T10:07:49.915Z,19.75
2024-02-27T10:10:17.444Z,19.30
2024-02-27T10:12:44.518Z,19.38
2024-02-27T10:15:11.543Z,18.42
2024-02-27T10:17:39.347Z,18.45
2024-02-27T10:20:11.628Z,18.50
2024-02-27T10:22:42.222Z,18.25
2024-02-27T10:25:16.202Z,18.65
2024-02-27T10:27:43.679Z,19.60
2024-02-27T10:30:11.855Z,18.23
2024-02-27T10:32:42.085Z,18.27
2024-02-27T10:35:10.017Z,16.33
2024-02-27T10:37:37.233Z,18.35
2024-02-27T10:40:07.606Z,17.70
2024-02-27T10:42:34.263Z,16.98
2024-02-27T10:45:01.370Z,17.05
2024-02-27T10:47:28.432Z,15.70
2024-02-27T10:49:55.348Z,15.73
2024-02-27T10:52:27.477Z,17.60
2024-02-27T10:54:54.617Z,16.23
2024-02-27T10:57:21.196Z,16.60
2024-02-27T10:59:48.073Z,15.65
2024-02-27T11:02:20.992Z,15.90
2024-02-27T11:04:48.572Z,15.77
2024-02-27T11:07:19.052Z,16.40
2024-02-27T11:09:46.464Z,14.77
2024-02-27T11:12:17.889Z,15.18
2024-02-27T11:14:50.303Z,14.82
2024-02-27T11:17:21.581Z,14.55
2024-02-27T11:19:50.124Z,15.05
2024-02-27T11:22:23.882Z,14.60
2024-02-27T11:24:50.536Z,15.32
2024-02-27T11:27:19.794Z,14.23
2024-02-27T11:29:46.756Z,14.48
2024-02-27T11:32:13.895Z,14.15
2024-02-27T11:34:43.955Z,13.70
2024-02-27T11:37:14.519Z,13.55
2024-02-27T11:39:41.483Z,14.68
2024-02-27T11:42:37.811Z,14.55
2024-02-27T11:45:05.613Z,12.60
2024-02-27T11:47:37.975Z,14.40
2024-02-27T11:50:07.343Z,14.13
2024-02-27T11:52:36.836Z,14.18
2024-02-27T11:55:07.465Z,14.10
2024-02-27T11:57:36.126Z,12.00
2024-02-27T12:00:10.038Z,12.57
2024-02-27T12:02:38.138Z,12.15
2024-02-27T12:05:08.897Z,12.27
2024-02-27T12:07:35.945Z,13.75
2024-02-27T12:10:13.064Z,12.60
2024-02-27T12:12:40.793Z,13.48
2024-02-27T12:15:08.642Z,12.65
2024-02-27T12:17:37.292Z,12.93
2024-02-27T12:20:06.860Z,12.63
2024-02-27T12:22:37.614Z,13.25
2024-02-27T12:25:04.826Z,12.88
2024-02-27T12:27:32.981Z,12.88
2024-02-27T12:30:01.427Z,12.60
2024-02-27T12:32:29.183Z,13.55
2024-02-27T12:34:55.641Z,13.93
2024-02-27T12:37:22.105Z,12.90
2024-02-27T12:39:48.870Z,12.80
2024-02-27T12:42:16.102Z,13.32
2024-02-27T12:44:46.585Z,12.43
2024-02-27T12:47:12.996Z,13.55
2024-02-27T12:49:39.534Z,12.80
2024-02-27T12:52:16.324Z,13.15
2024-02-27T12:54:44.017Z,11.70
2024-02-27T12:57:11.008Z,12.55
2024-02-27T12:59:39.934Z,11.52
2024-02-27T13:02:07.632Z,12.98
2024-02-27T13:04:35.869Z,12.80
2024-02-27T13:07:02.511Z,13.60
2024-02-27T13:09:29.937Z,13.38
2024-02-27T13:12:08.121Z,12.65
2024-02-27T13:14:34.878Z,14.30
2024-02-27T13:17:01.494Z,12.57
2024-02-27T13:19:28.073Z,13.40
2024-02-27T13:21:56.622Z,13.45
2024-02-27T13:24:23.288Z,13.90
2024-02-27T13:26:49.771Z,12.63
2024-02-27T13:29:16.179Z,13.88
2024-02-27T13:31:42.769Z,12.32
2024-02-27T13:34:09.488Z,13.98
2024-02-27T13:36:36.043Z,12.85
2024-02-27T13:39:04.760Z,12.43
2024-02-27T13:41:31.403Z,13.45
2024-02-27T13:43:57.862Z,14.02
2024-02-27T13:46:24.306Z,14.32
2024-02-27T13:48:50.741Z,14.07
2024-02-27T13:51:17.887Z,14.48
2024-02-27T13:53:44.534Z,15.32
2024-02-27T13:56:10.978Z,12.73
2024-02-27T13:58:37.980Z,12.25
2024-02-27T14:01:04.809Z,11.15
2024-02-27T14:03:33.325Z,11.70
2024-02-27T14:06:00.372Z,11.90
2024-02-27T14:08:26.871Z,11.65
2024-02-27T14:10:55.383Z,11.13
2024-02-27T14:13:22.911Z,11.35
2024-02-27T14:15:49.777Z,11.18
2024-02-27T14:18:16.346Z,11.02
2024-02-27T14:20:42.853Z,11.38
2024-02-27T14:23:09.302Z,11.48
2024-02-27T14:25:38.033Z,10.90
2024-02-27T14:28:05.031Z,11.38
2024-02-27T14:30:31.493Z,11.15
2024-02-27T14:32:57.992Z,11.40
2024-02-27T14:35:24.458Z,10.80
2024-02-27T14:37:50.910Z,11.65
2024-02-27T14:40:17.839Z,11.30
2024-02-27T14:42:45.869Z,10.98
2024-02-27T14:45:12.403Z,10.82
2024-02-27T14:47:38.857Z,10.60
2024-02-27T14:50:05.707Z,11.25
2024-02-27T14:52:32.181Z,11.10
2024-02-27T14:55:03.359Z,11.15
2024-02-27T14:57:30.542Z,10.67
2024-02-27T14:59:57.009Z,10.70
2024-02-27T15:02:23.453Z,11.98
2024-02-27T15:04:50.757Z,10.90
2024-02-27T15:07:17.371Z,11.18
2024-02-27T15:09:43.918Z,11.70
2024-02-27T15:12:10.498Z,10.25
2024-02-27T15:14:37.019Z,11.30
2024-02-27T15:17:03.493Z,11.13
2024-02-27T15:19:30.196Z,10.65
2024-02-27T15:21:56.943Z,11.35
2024-02-27T15:24:23.431Z,11.90
2024-02-27T15:26:50.137Z,12.80
2024-02-27T15:29:17.669Z,12.15
2024-02-27T15:31:44.549Z,12.57
2024-02-27T15:34:11.191Z,12.52
2024-02-27T15:36:37.781Z,12.50
2024-02-27T15:39:07.477Z,12.35
2024-02-27T15:41:33.984Z,13.23
2024-02-27T15:44:08.028Z,13.32
2024-02-27T15:46:38.757Z,12.07
2024-02-27T15:49:05.854Z,12.35
2024-02-27T15:51:32.494Z,12.65
2024-02-27T15:53:58.970Z,11.80
2024-02-27T15:56:25.390Z,12.55
2024-02-27T15:58:51.851Z,12.60
2024-02-27T16:01:18.542Z,13.00
2024-02-27T16:04:07.086Z,12.10
2024-02-27T16:06:40.604Z,11.82
2024-02-27T16:09:07.169Z,12.82
2024-02-27T16:11:33.645Z,11.70
2024-02-27T16:14:00.110Z,12.43
2024-02-27T16:16:26.594Z,12.30
2024-02-27T16:18:54.545Z,13.77
2024-02-27T16:21:21.509Z,12.50
2024-02-27T16:23:47.982Z,12.85
2024-02-27T16:26:14.447Z,13.88
2024-02-27T16:28:40.988Z,12.25
2024-02-27T16:31:07.841Z,12.90
2024-02-27T16:33:34.461Z,12.27
2024-02-27T16:36:00.956Z,12.43
2024-02-27T16:38:27.393Z,13.38
2024-02-27T16:40:53.806Z,14.50
2024-02-27T16:43:20.776Z,14.50
2024-02-27T16:45:48.961Z,12.93
2024-02-27T16:48:15.635Z,13.07
2024-02-27T16:50:42.229Z,13.88
2024-02-27T16:53:08.708Z,13.32
2024-02-27T16:55:37.088Z,12.23
2024-02-27T16:58:04.193Z,13.27
2024-02-27T17:00:30.758Z,13.43
2024-02-27T17:02:57.198Z,13.65
2024-02-27T17:05:23.624Z,14.35
2024-02-27T17:07:50.040Z,14.70
2024-02-27T17:10:16.538Z,14.75
2024-02-27T17:12:43.425Z,16.25
2024-02-27T17:15:10.704Z,16.30
2024-02-27T17:17:37.320Z,16.17
2024-02-27T17:20:04.030Z,16.20
2024-02-27T17:22:30.505Z,16.85
2024-02-27T17:24:56.974Z,16.70
2024-02-27T17:27:23.451Z,15.52
2024-02-27T17:29:51.451Z,16.85
2024-02-27T17:32:17.862Z,17.95
2024-02-27T17:34:44.444Z,15.80
2024-02-27T17:37:11.526Z,16.83
2024-02-27T17:39:38.024Z,17.38
2024-02-27T17:42:04.898Z,18.27
2024-02-27T17:44:31.461Z,16.88
2024-02-27T17:46:57.863Z,19.25
2024-02-27T17:49:24.495Z,17.20
2024-02-27T17:51:51.093Z,18.33
2024-02-27T17:54:17.538Z,16.95
2024-02-27T17:56:44.029Z,16.15
2024-02-27T17:59:11.295Z,16.15
2024-02-27T18:01:37.951Z,18.35
2024-02-27T18:04:06.453Z,21.35
2024-02-27T18:06:32.998Z,19.73
2024-02-27T18:09:00.296Z,21.25
2024-02-27T18:11:26.777Z,20.40
2024-02-27T18:13:53.278Z,22.08
2024-02-27T18:16:19.858Z,19.73
2024-02-27T18:18:46.320Z,21.40
2024-02-27T18:21:12.776Z,21.02
2024-02-27T18:23:39.210Z,21.60
2024-02-27T18:26:05.671Z,23.25
2024-02-27T18:28:32.083Z,21.92
2024-02-27T18:30:58.992Z,19.38
2024-02-27T18:33:25.780Z,21.17
2024-02-27T18:35:56.166Z,20.02
2024-02-27T18:38:24.513Z,20.33
2024-02-27T18:40:51.381Z,19.60
2024-02-27T18:43:17.860Z,20.65
2024-02-27T18:45:46.858Z,20.02
2024-02-27T18:48:13.576Z,19.20
2024-02-27T18:50:40.985Z,21.95
2024-02-27T18:53:07.757Z,20.83
2024-02-27T18:55:34.206Z,20.13
2024-02-27T18:58:00.751Z,19.92
2024-02-27T19:00:27.401Z,19.27
2024-02-27T19:02:54.061Z,18.63
2024-02-27T19:05:20.517Z,20.95
2024-02-27T19:07:46.987Z,21.52
2024-02-27T19:10:13.721Z,21.83
2024-02-27T19:12:40.785Z,20.85
2024-02-27T19:15:08.101Z,19.88
2024-02-27T19:17:34.561Z,20.35
2024-02-27T19:20:01.050Z,21.50
2024-02-27T19:22:27.853Z,21.58
2024-02-27T19:24:54.257Z,20.15
2024-02-27T19:27:20.697Z,19.70
2024-02-27T19:29:47.120Z,21.38
2024-02-27T19:32:13.547Z,20.67
2024-02-27T19:34:40.627Z,23.98
2024-02-27T19:37:07.022Z,24.05
2024-02-27T19:39:33.530Z,22.30
2024-02-27T19:41:59.980Z,23.05
2024-02-27T19:44:26.419Z,20.92
2024-02-27T19:46:52.872Z,20.17
2024-02-27T19:49:20.341Z,22.27
2024-02-27T19:51:46.968Z,22.75
2024-02-27T19:54:13.485Z,21.45
2024-02-27T19:56:41.158Z,20.13
2024-02-27T19:59:07.772Z,21.25
2024-02-27T20:01:34.240Z,20.83
2024-02-27T20:04:00.728Z,21.98
2024-02-27T20:06:27.530Z,22.98
2024-02-27T20:08:53.979Z,22.30
2024-02-27T20:11:20.459Z,20.52
2024-02-27T20:13:47.319Z,21.95
2024-02-27T20:16:14.027Z,22.85
2024-02-27T20:18:41.453Z,23.33
2024-02-27T20:21:08.307Z,23.33
2024-02-27T20:23:34.877Z,21.75
2024-02-27T20:26:05.816Z,21.98
2024-02-27T20:28:33.165Z,24.42
2024-02-27T20:30:59.686Z,22.27
2024-02-27T20:33:27.803Z,23.15
2024-02-27T20:35:54.624Z,23.60
2024-02-27T20:38:21.905Z,22.02
2024-02-27T20:40:48.416Z,22.05
2024-02-27T20:43:14.929Z,21.65
2024-02-27T20:45:42.059Z,21.92
2024-02-27T20:48:10.228Z,24.15
2024-02-27T20:50:37.434Z,22.08
2024-02-27T20:53:04.156Z,22.65
2024-02-27T20:55:30.811Z,23.05
2024-02-27T20:57:58.318Z,22.13
2024-02-27T21:00:24.986Z,26.02
2024-02-27T21:02:52.047Z,22.98
2024-02-27T21:05:18.542Z,23.70
2024-02-27T21:07:48.078Z,22.65
2024-02-27T21:10:14.706Z,25.60
2024-02-27T21:12:41.300Z,24.00
2024-02-27T21:15:08.921Z,24.52
2024-02-27T21:17:35.484Z,22.83
2024-02-27T21:20:02.701Z,23.25
2024-02-27T21:22:29.125Z,22.65
2024-02-27T21:24:55.634Z,21.35
2024-02-27T21:27:22.160Z,20.98
2024-02-27T21:29:48.574Z,22.45
2024-02-27T21:32:15.822Z,21.23
2024-02-27T21:34:42.258Z,23.20
2024-02-27T21:37:08.695Z,21.67
2024-02-27T21:39:35.141Z,22.95
2024-02-27T21:42:02.387Z,20.45
2024-02-27T21:44:28.857Z,22.25
2024-02-27T21:46:55.290Z,24.05
2024-02-27T21:49:21.735Z,22.63
2024-02-27T21:51:56.831Z,23.45
2024-02-27T21:54:29.294Z,21.45
2024-02-27T21:56:55.738Z,23.33
2024-02-27T21:59:22.149Z,20.35
2024-02-27T22:01:49.852Z,23.75
2024-02-27T22:04:16.431Z,23.70
2024-02-27T22:06:42.900Z,25.15
2024-02-27T22:09:11.229Z,24.73
2024-02-27T22:11:38.082Z,25.42
2024-02-27T22:14:04.736Z,26.75
2024-02-27T22:16:31.308Z,27.48
2024-02-27T22:18:57.864Z,28.30
2024-02-27T22:21:24.425Z,26.38
2024-02-27T22:23:50.892Z,27.50
2024-02-27T22:26:17.348Z,28.20
2024-02-27T22:28:43.778Z,27.63
2024-02-27T22:31:10.206Z,28.00
2024-02-27T22:33:36.675Z,27.42
2024-02-27T22:36:03.234Z,25.17
2024-02-27T22:38:29.666Z,27.35
2024-02-27T22:40:56.333Z,26.90
2024-02-27T22:43:22.842Z,27.42
2024-02-27T22:45:49.878Z,27.90
2024-02-27T22:48:16.554Z,28.48
2024-02-27T22:50:44.164Z,27.35
2024-02-27T22:53:10.802Z,26.40
2024-02-27T22:55:37.962Z,26.10
2024-02-27T22:58:05.431Z,26.38
2024-02-27T23:00:32.116Z,26.38
2024-02-27T23:02:59.187Z,25.15
2024-02-27T23:05:25.719Z,24.38
2024-02-27T23:07:53.668Z,24.90
2024-02-27T23:10:20.880Z,24.83
2024-02-27T23:12:47.469Z,26.35
2024-02-27T23:15:14.833Z,25.75
2024-02-27T23:17:41.341Z,26.23
2024-02-27T23:20:09.787Z,27.65
2024-02-27T23:22:36.241Z,27.02
2024-02-27T23:25:03.120Z,29.55
2024-02-27T23:27:29.578Z,26.42
2024-02-27T23:29:56.033Z,30.40
2024-02-27T23:32:22.438Z,26.75
2024-02-27T23:34:48.853Z,27.33
2024-02-27T23:37:15.253Z,26.98
2024-02-27T23:39:41.869Z,25.10
2024-02-27T23:42:08.325Z,28.60
2024-02-27T23:44:34.779Z,26.23
2024-02-27T23:47:01.278Z,25.48
2024-02-27T23:49:27.691Z,23.75
2024-02-27T23:51:54.125Z,25.00
2024-02-27T23:54:20.633Z,22.73
2024-02-27T23:56:48.807Z,25.13
2024-02-27T23:59:18.471Z,26.95
